sensor_id;sensor_type;location;lat;lon;timestamp;P1;durP1;ratioP1;P2;durP2;ratioP2
54125;SDS011;40360;52.992;6.796;2023-07-24T00:01:04;11.98;;;7.18;;
54125;SDS011;40360;52.992;6.796;2023-07-24T00:03:30;12.20;;;6.70;;
54125;SDS011;40360;52.992;6.796;2023-07-24T00:05:59;8.55;;;7.38;;
54125;SDS011;40360;52.992;6.796;2023-07-24T00:08:24;9.45;;;6.60;;
54125;SDS011;40360;52.992;6.796;2023-07-24T00:10:50;13.25;;;7.13;;
54125;SDS011;40360;52.992;6.796;2023-07-24T00:13:16;10.82;;;6.97;;
54125;SDS011;40360;52.992;6.796;2023-07-24T00:15:41;10.82;;;6.80;;
54125;SDS011;40360;52.992;6.796;2023-07-24T00:18:07;10.48;;;6.78;;
54125;SDS011;40360;52.992;6.796;2023-07-24T00:20:32;10.60;;;6.90;;
54125;SDS011;40360;52.992;6.796;2023-07-24T00:22:58;10.85;;;7.22;;
54125;SDS011;40360;52.992;6.796;2023-07-24T00:25:24;11.70;;;7.75;;
54125;SDS011;40360;52.992;6.796;2023-07-24T00:27:49;10.77;;;8.30;;
54125;SDS011;40360;52.992;6.796;2023-07-24T00:30:15;11.95;;;7.25;;
54125;SDS011;40360;52.992;6.796;2023-07-24T00:32:40;10.98;;;7.70;;
54125;SDS011;40360;52.992;6.796;2023-07-24T00:35:06;14.10;;;7.10;;
54125;SDS011;40360;52.992;6.796;2023-07-24T00:37:32;13.55;;;8.10;;
54125;SDS011;40360;52.992;6.796;2023-07-24T00:39:58;14.27;;;8.13;;
54125;SDS011;40360;52.992;6.796;2023-07-24T00:42:23;14.32;;;8.45;;
54125;SDS011;40360;52.992;6.796;2023-07-24T00:44:49;10.27;;;7.95;;
54125;SDS011;40360;52.992;6.796;2023-07-24T00:47:14;9.55;;;7.72;;
54125;SDS011;40360;52.992;6.796;2023-07-24T00:49:40;10.98;;;8.40;;
54125;SDS011;40360;52.992;6.796;2023-07-24T00:52:06;10.73;;;8.57;;
54125;SDS011;40360;52.992;6.796;2023-07-24T00:54:33;10.65;;;8.57;;
54125;SDS011;40360;52.992;6.796;2023-07-24T00:56:59;10.85;;;8.48;;
54125;SDS011;40360;52.992;6.796;2023-07-24T00:59:26;12.18;;;8.93;;
54125;SDS011;40360;52.992;6.796;2023-07-24T01:01:52;12.32;;;10.32;;
54125;SDS011;40360;52.992;6.796;2023-07-24T01:04:18;12.00;;;10.40;;
54125;SDS011;40360;52.992;6.796;2023-07-24T01:06:44;13.38;;;11.00;;
54125;SDS011;40360;52.992;6.796;2023-07-24T01:09:10;13.73;;;10.68;;
54125;SDS011;40360;52.992;6.796;2023-07-24T01:11:37;16.08;;;12.18;;
54125;SDS011;40360;52.992;6.796;2023-07-24T01:17:14;16.15;;;13.23;;
54125;SDS011;40360;52.992;6.796;2023-07-24T01:19:46;14.57;;;13.07;;
54125;SDS011;40360;52.992;6.796;2023-07-24T01:27:23;15.63;;;13.95;;
54125;SDS011;40360;52.992;6.796;2023-07-24T01:29:49;17.48;;;14.15;;
54125;SDS011;40360;52.992;6.796;2023-07-24T01:32:15;15.20;;;13.00;;
54125;SDS011;40360;52.992;6.796;2023-07-24T01:34:42;14.60;;;13.10;;
54125;SDS011;40360;52.992;6.796;2023-07-24T01:37:10;16.75;;;15.00;;
54125;SDS011;40360;52.992;6.796;2023-07-24T01:39:37;15.38;;;13.77;;
54125;SDS011;40360;52.992;6.796;2023-07-24T01:42:06;15.70;;;14.10;;
54125;SDS011;40360;52.992;6.796;2023-07-24T01:44:32;15.95;;;14.27;;
54125;SDS011;40360;52.992;6.796;2023-07-24T01:46:58;16.48;;;14.82;;
54125;SDS011;40360;52.992;6.796;2023-07-24T01:49:24;17.33;;;13.68;;
54125;SDS011;40360;52.992;6.796;2023-07-24T01:51:49;14.20;;;12.70;;
54125;SDS011;40360;52.992;6.796;2023-07-24T01:54:15;16.25;;;12.80;;
54125;SDS011;40360;52.992;6.796;2023-07-24T01:56:40;14.80;;;13.30;;
54125;SDS011;40360;52.992;6.796;2023-07-24T01:59:08;13.38;;;11.02;;
54125;SDS011;40360;52.992;6.796;2023-07-24T02:01:34;12.77;;;11.57;;
54125;SDS011;40360;52.992;6.796;2023-07-24T02:04:00;12.57;;;11.38;;
54125;SDS011;40360;52.992;6.796;2023-07-24T02:06:25;14.40;;;13.05;;
54125;SDS011;40360;52.992;6.796;2023-07-24T02:08:51;13.13;;;11.75;;
54125;SDS011;40360;52.992;6.796;2023-07-24T02:11:17;13.40;;;12.10;;
54125;SDS011;40360;52.992;6.796;2023-07-24T02:13:46;13.52;;;12.07;;
54125;SDS011;40360;52.992;6.796;2023-07-24T02:16:12;14.73;;;12.38;;
54125;SDS011;40360;52.992;6.796;2023-07-24T02:18:38;13.60;;;12.02;;
54125;SDS011;40360;52.992;6.796;2023-07-24T02:21:06;12.50;;;11.20;;
54125;SDS011;40360;52.992;6.796;2023-07-24T02:23:31;12.48;;;11.18;;
54125;SDS011;40360;52.992;6.796;2023-07-24T02:25:57;13.18;;;11.93;;
54125;SDS011;40360;52.992;6.796;2023-07-24T02:28:23;12.85;;;11.65;;
54125;SDS011;40360;52.992;6.796;2023-07-24T02:30:48;16.10;;;12.02;;
54125;SDS011;40360;52.992;6.796;2023-07-24T02:33:16;13.65;;;11.77;;
54125;SDS011;40360;52.992;6.796;2023-07-24T02:35:42;13.40;;;12.10;;
54125;SDS011;40360;52.992;6.796;2023-07-24T02:38:08;14.02;;;12.57;;
54125;SDS011;40360;52.992;6.796;2023-07-24T02:40:33;14.85;;;13.18;;
54125;SDS011;40360;52.992;6.796;2023-07-24T02:43:00;14.00;;;12.57;;
54125;SDS011;40360;52.992;6.796;2023-07-24T02:45:25;15.65;;;13.88;;
54125;SDS011;40360;52.992;6.796;2023-07-24T02:47:51;15.10;;;13.63;;
54125;SDS011;40360;52.992;6.796;2023-07-24T02:50:17;15.70;;;13.32;;
54125;SDS011;40360;52.992;6.796;2023-07-24T02:52:42;15.18;;;13.05;;
54125;SDS011;40360;52.992;6.796;2023-07-24T02:55:08;14.10;;;12.70;;
54125;SDS011;40360;52.992;6.796;2023-07-24T02:57:33;14.43;;;12.55;;
54125;SDS011;40360;52.992;6.796;2023-07-24T02:59:59;16.00;;;13.98;;
54125;SDS011;40360;52.992;6.796;2023-07-24T03:02:25;15.63;;;14.07;;
54125;SDS011;40360;52.992;6.796;2023-07-24T03:04:50;14.38;;;12.88;;
54125;SDS011;40360;52.992;6.796;2023-07-24T03:07:16;14.02;;;12.07;;
54125;SDS011;40360;52.992;6.796;2023-07-24T03:09:41;13.77;;;12.32;;
54125;SDS011;40360;52.992;6.796;2023-07-24T03:12:07;15.65;;;14.02;;
54125;SDS011;40360;52.992;6.796;2023-07-24T03:14:33;14.35;;;12.93;;
54125;SDS011;40360;52.992;6.796;2023-07-24T03:16:58;13.38;;;11.98;;
54125;SDS011;40360;52.992;6.796;2023-07-24T03:19:24;14.35;;;12.35;;
54125;SDS011;40360;52.992;6.796;2023-07-24T03:21:50;13.15;;;11.23;;
54125;SDS011;40360;52.992;6.796;2023-07-24T03:24:16;12.93;;;11.63;;
54125;SDS011;40360;52.992;6.796;2023-07-24T03:26:41;15.18;;;12.38;;
54125;SDS011;40360;52.992;6.796;2023-07-24T03:29:07;12.93;;;11.25;;
54125;SDS011;40360;52.992;6.796;2023-07-24T03:31:33;14.77;;;11.60;;
54125;SDS011;40360;52.992;6.796;2023-07-24T03:33:59;13.38;;;11.23;;
54125;SDS011;40360;52.992;6.796;2023-07-24T03:36:24;11.70;;;10.38;;
54125;SDS011;40360;52.992;6.796;2023-07-24T03:38:50;14.82;;;10.88;;
54125;SDS011;40360;52.992;6.796;2023-07-24T03:41:16;12.27;;;10.98;;
54125;SDS011;40360;52.992;6.796;2023-07-24T03:43:41;11.50;;;9.57;;
54125;SDS011;40360;52.992;6.796;2023-07-24T03:46:07;11.73;;;10.52;;
54125;SDS011;40360;52.992;6.796;2023-07-24T03:48:32;13.15;;;11.15;;
54125;SDS011;40360;52.992;6.796;2023-07-24T03:51:00;11.95;;;10.70;;
54125;SDS011;40360;52.992;6.796;2023-07-24T03:53:25;12.15;;;10.90;;
54125;SDS011;40360;52.992;6.796;2023-07-24T03:55:51;12.25;;;11.00;;
54125;SDS011;40360;52.992;6.796;2023-07-24T03:58:17;13.15;;;10.70;;
54125;SDS011;40360;52.992;6.796;2023-07-24T04:00:43;12.35;;;11.05;;
54125;SDS011;40360;52.992;6.796;2023-07-24T04:03:08;17.27;;;13.05;;
54125;SDS011;40360;52.992;6.796;2023-07-24T04:05:35;12.55;;;10.85;;
54125;SDS011;40360;52.992;6.796;2023-07-24T04:08:00;12.20;;;10.10;;
54125;SDS011;40360;52.992;6.796;2023-07-24T04:10:26;13.88;;;10.77;;
54125;SDS011;40360;52.992;6.796;2023-07-24T04:12:52;12.60;;;11.30;;
54125;SDS011;40360;52.992;6.796;2023-07-24T04:15:18;11.73;;;10.40;;
54125;SDS011;40360;52.992;6.796;2023-07-24T04:17:43;11.88;;;10.57;;
54125;SDS011;40360;52.992;6.796;2023-07-24T04:20:09;14.35;;;10.40;;
54125;SDS011;40360;52.992;6.796;2023-07-24T04:22:35;12.38;;;10.60;;
54125;SDS011;40360;52.992;6.796;2023-07-24T04:25:01;11.80;;;10.60;;
54125;SDS011;40360;52.992;6.796;2023-07-24T04:27:26;12.13;;;10.45;;
54125;SDS011;40360;52.992;6.796;2023-07-24T04:29:52;12.38;;;10.00;;
54125;SDS011;40360;52.992;6.796;2023-07-24T04:32:18;13.13;;;11.02;;
54125;SDS011;40360;52.992;6.796;2023-07-24T04:34:43;11.93;;;10.52;;
54125;SDS011;40360;52.992;6.796;2023-07-24T04:37:09;11.80;;;10.45;;
54125;SDS011;40360;52.992;6.796;2023-07-24T04:39:34;13.00;;;11.30;;
54125;SDS011;40360;52.992;6.796;2023-07-24T04:42:00;13.02;;;11.40;;
54125;SDS011;40360;52.992;6.796;2023-07-24T04:44:25;13.05;;;10.35;;
54125;SDS011;40360;52.992;6.796;2023-07-24T04:46:51;14.85;;;11.23;;
54125;SDS011;40360;52.992;6.796;2023-07-24T04:49:17;11.82;;;10.63;;
54125;SDS011;40360;52.992;6.796;2023-07-24T04:51:42;15.25;;;11.50;;
54125;SDS011;40360;52.992;6.796;2023-07-24T04:54:08;12.40;;;10.40;;
54125;SDS011;40360;52.992;6.796;2023-07-24T04:56:34;12.13;;;10.07;;
54125;SDS011;40360;52.992;6.796;2023-07-24T04:58:59;12.45;;;11.15;;
54125;SDS011;40360;52.992;6.796;2023-07-24T05:01:25;14.80;;;11.18;;
54125;SDS011;40360;52.992;6.796;2023-07-24T05:03:50;11.82;;;10.55;;
54125;SDS011;40360;52.992;6.796;2023-07-24T05:06:16;13.85;;;11.13;;
54125;SDS011;40360;52.992;6.796;2023-07-24T05:08:41;12.38;;;11.07;;
54125;SDS011;40360;52.992;6.796;2023-07-24T05:11:07;11.85;;;10.65;;
54125;SDS011;40360;52.992;6.796;2023-07-24T05:13:33;15.52;;;11.73;;
54125;SDS011;40360;52.992;6.796;2023-07-24T05:15:58;13.38;;;11.68;;
54125;SDS011;40360;52.992;6.796;2023-07-24T05:18:24;12.02;;;10.68;;
54125;SDS011;40360;52.992;6.796;2023-07-24T05:20:49;12.95;;;10.90;;
54125;SDS011;40360;52.992;6.796;2023-07-24T05:23:17;14.13;;;11.93;;
54125;SDS011;40360;52.992;6.796;2023-07-24T05:25:43;12.50;;;11.20;;
54125;SDS011;40360;52.992;6.796;2023-07-24T05:28:09;13.40;;;11.13;;
54125;SDS011;40360;52.992;6.796;2023-07-24T05:30:35;12.93;;;11.63;;
54125;SDS011;40360;52.992;6.796;2023-07-24T05:33:00;11.93;;;10.45;;
54125;SDS011;40360;52.992;6.796;2023-07-24T05:35:26;12.07;;;10.45;;
54125;SDS011;40360;52.992;6.796;2023-07-24T05:37:52;12.00;;;10.63;;
54125;SDS011;40360;52.992;6.796;2023-07-24T05:40:17;12.40;;;11.20;;
54125;SDS011;40360;52.992;6.796;2023-07-24T05:42:43;11.60;;;10.50;;
54125;SDS011;40360;52.992;6.796;2023-07-24T06:01:49;13.68;;;11.65;;
54125;SDS011;40360;52.992;6.796;2023-07-24T06:04:15;14.27;;;12.77;;
54125;SDS011;40360;52.992;6.796;2023-07-24T06:06:40;13.43;;;12.05;;
54125;SDS011;40360;52.992;6.796;2023-07-24T06:09:06;16.95;;;11.70;;
54125;SDS011;40360;52.992;6.796;2023-07-24T06:11:31;12.82;;;11.48;;
54125;SDS011;40360;52.992;6.796;2023-07-24T06:13:57;12.48;;;11.20;;
54125;SDS011;40360;52.992;6.796;2023-07-24T06:16:23;14.15;;;11.18;;
54125;SDS011;40360;52.992;6.796;2023-07-24T06:18:48;14.77;;;12.48;;
54125;SDS011;40360;52.992;6.796;2023-07-24T06:21:14;12.52;;;11.23;;
54125;SDS011;40360;52.992;6.796;2023-07-24T06:23:39;12.93;;;11.43;;
54125;SDS011;40360;52.992;6.796;2023-07-24T06:26:05;14.45;;;12.05;;
54125;SDS011;40360;52.992;6.796;2023-07-24T06:28:31;12.52;;;11.32;;
54125;SDS011;40360;52.992;6.796;2023-07-24T06:30:57;14.82;;;11.32;;
54125;SDS011;40360;52.992;6.796;2023-07-24T06:33:22;12.88;;;11.25;;
54125;SDS011;40360;52.992;6.796;2023-07-24T06:35:49;12.10;;;9.95;;
54125;SDS011;40360;52.992;6.796;2023-07-24T06:38:15;12.00;;;10.05;;
54125;SDS011;40360;52.992;6.796;2023-07-24T06:40:40;12.38;;;10.55;;
54125;SDS011;40360;52.992;6.796;2023-07-24T06:43:06;13.82;;;10.80;;
54125;SDS011;40360;52.992;6.796;2023-07-24T06:45:32;12.60;;;10.45;;
54125;SDS011;40360;52.992;6.796;2023-07-24T06:47:57;11.63;;;9.90;;
54125;SDS011;40360;52.992;6.796;2023-07-24T06:50:23;11.88;;;9.75;;
54125;SDS011;40360;52.992;6.796;2023-07-24T06:52:49;12.80;;;9.40;;
54125;SDS011;40360;52.992;6.796;2023-07-24T06:55:16;12.50;;;9.55;;
54125;SDS011;40360;52.992;6.796;2023-07-24T06:57:41;10.88;;;9.48;;
54125;SDS011;40360;52.992;6.796;2023-07-24T07:00:07;11.25;;;9.95;;
54125;SDS011;40360;52.992;6.796;2023-07-24T07:02:36;12.20;;;9.02;;
54125;SDS011;40360;52.992;6.796;2023-07-24T07:05:02;13.27;;;9.68;;
54125;SDS011;40360;52.992;6.796;2023-07-24T07:07:28;12.65;;;9.52;;
54125;SDS011;40360;52.992;6.796;2023-07-24T07:09:54;12.70;;;9.07;;
54125;SDS011;40360;52.992;6.796;2023-07-24T07:12:19;11.20;;;9.68;;
54125;SDS011;40360;52.992;6.796;2023-07-24T07:14:45;12.68;;;9.10;;
54125;SDS011;40360;52.992;6.796;2023-07-24T07:17:11;15.32;;;10.32;;
54125;SDS011;40360;52.992;6.796;2023-07-24T07:19:36;13.23;;;9.23;;
54125;SDS011;40360;52.992;6.796;2023-07-24T07:22:02;13.35;;;10.23;;
54125;SDS011;40360;52.992;6.796;2023-07-24T07:24:28;12.10;;;9.77;;
54125;SDS011;40360;52.992;6.796;2023-07-24T07:26:53;16.02;;;9.63;;
54125;SDS011;40360;52.992;6.796;2023-07-24T07:29:19;12.13;;;9.80;;
54125;SDS011;40360;52.992;6.796;2023-07-24T07:31:44;14.05;;;9.52;;
54125;SDS011;40360;52.992;6.796;2023-07-24T07:34:10;13.20;;;9.68;;
54125;SDS011;40360;52.992;6.796;2023-07-24T07:36:36;11.02;;;9.50;;
54125;SDS011;40360;52.992;6.796;2023-07-24T07:39:01;13.25;;;10.82;;
54125;SDS011;40360;52.992;6.796;2023-07-24T07:41:27;16.30;;;10.82;;
54125;SDS011;40360;52.992;6.796;2023-07-24T07:43:53;13.90;;;10.32;;
54125;SDS011;40360;52.992;6.796;2023-07-24T07:46:19;10.57;;;8.90;;
54125;SDS011;40360;52.992;6.796;2023-07-24T07:48:45;11.90;;;9.85;;
54125;SDS011;40360;52.992;6.796;2023-07-24T07:51:14;15.15;;;9.90;;
54125;SDS011;40360;52.992;6.796;2023-07-24T07:53:40;17.60;;;10.15;;
54125;SDS011;40360;52.992;6.796;2023-07-24T07:56:06;12.48;;;9.80;;
54125;SDS011;40360;52.992;6.796;2023-07-24T07:58:32;14.68;;;10.43;;
54125;SDS011;40360;52.992;6.796;2023-07-24T08:00:57;11.25;;;8.75;;
54125;SDS011;40360;52.992;6.796;2023-07-24T08:03:23;14.23;;;9.48;;
54125;SDS011;40360;52.992;6.796;2023-07-24T08:05:49;13.35;;;8.63;;
54125;SDS011;40360;52.992;6.796;2023-07-24T08:08:16;13.15;;;9.95;;
54125;SDS011;40360;52.992;6.796;2023-07-24T08:10:41;11.18;;;8.82;;
54125;SDS011;40360;52.992;6.796;2023-07-24T08:13:07;13.02;;;8.38;;
54125;SDS011;40360;52.992;6.796;2023-07-24T08:15:36;12.20;;;9.68;;
54125;SDS011;40360;52.992;6.796;2023-07-24T08:18:02;13.00;;;8.65;;
54125;SDS011;40360;52.992;6.796;2023-07-24T08:20:29;14.48;;;9.60;;
54125;SDS011;40360;52.992;6.796;2023-07-24T08:22:55;13.43;;;9.48;;
54125;SDS011;40360;52.992;6.796;2023-07-24T08:25:20;9.98;;;8.95;;
54125;SDS011;40360;52.992;6.796;2023-07-24T08:27:46;10.57;;;8.93;;
54125;SDS011;40360;52.992;6.796;2023-07-24T08:30:12;12.43;;;9.77;;
54125;SDS011;40360;52.992;6.796;2023-07-24T08:32:38;11.82;;;8.88;;
54125;SDS011;40360;52.992;6.796;2023-07-24T08:35:04;14.30;;;9.43;;
54125;SDS011;40360;52.992;6.796;2023-07-24T08:37:31;10.77;;;8.70;;
54125;SDS011;40360;52.992;6.796;2023-07-24T08:39:56;11.45;;;8.25;;
54125;SDS011;40360;52.992;6.796;2023-07-24T08:42:22;12.32;;;8.73;;
54125;SDS011;40360;52.992;6.796;2023-07-24T08:44:49;10.95;;;7.60;;
54125;SDS011;40360;52.992;6.796;2023-07-24T08:47:16;12.25;;;8.27;;
54125;SDS011;40360;52.992;6.796;2023-07-24T08:49:43;11.30;;;7.90;;
54125;SDS011;40360;52.992;6.796;2023-07-24T08:52:11;9.80;;;8.07;;
54125;SDS011;40360;52.992;6.796;2023-07-24T08:54:37;10.75;;;7.68;;
54125;SDS011;40360;52.992;6.796;2023-07-24T08:57:04;8.43;;;6.60;;
54125;SDS011;40360;52.992;6.796;2023-07-24T08:59:31;13.10;;;7.63;;
54125;SDS011;40360;52.992;6.796;2023-07-24T09:01:57;9.18;;;7.15;;
54125;SDS011;40360;52.992;6.796;2023-07-24T09:04:23;11.25;;;7.10;;
54125;SDS011;40360;52.992;6.796;2023-07-24T09:06:49;9.93;;;7.65;;
54125;SDS011;40360;52.992;6.796;2023-07-24T09:09:15;11.15;;;7.85;;
54125;SDS011;40360;52.992;6.796;2023-07-24T09:11:53;11.27;;;7.72;;
54125;SDS011;40360;52.992;6.796;2023-07-24T09:14:20;11.25;;;7.72;;
54125;SDS011;40360;52.992;6.796;2023-07-24T09:16:49;11.25;;;8.85;;
54125;SDS011;40360;52.992;6.796;2023-07-24T09:19:18;11.35;;;7.72;;
54125;SDS011;40360;52.992;6.796;2023-07-24T09:21:44;10.00;;;6.97;;
54125;SDS011;40360;52.992;6.796;2023-07-24T09:24:13;14.90;;;8.77;;
54125;SDS011;40360;52.992;6.796;2023-07-24T09:26:46;10.38;;;7.57;;
54125;SDS011;40360;52.992;6.796;2023-07-24T09:29:16;11.05;;;7.15;;
54125;SDS011;40360;52.992;6.796;2023-07-24T09:31:43;12.45;;;6.82;;
54125;SDS011;40360;52.992;6.796;2023-07-24T09:34:18;9.48;;;6.50;;
54125;SDS011;40360;52.992;6.796;2023-07-24T09:36:44;10.82;;;6.90;;
54125;SDS011;40360;52.992;6.796;2023-07-24T09:39:10;10.73;;;7.68;;
54125;SDS011;40360;52.992;6.796;2023-07-24T09:41:39;10.15;;;7.18;;
54125;SDS011;40360;52.992;6.796;2023-07-24T09:44:06;12.38;;;7.60;;
54125;SDS011;40360;52.992;6.796;2023-07-24T09:46:32;13.18;;;8.50;;
54125;SDS011;40360;52.992;6.796;2023-07-24T09:48:58;12.13;;;7.63;;
54125;SDS011;40360;52.992;6.796;2023-07-24T09:51:23;17.17;;;8.00;;
54125;SDS011;40360;52.992;6.796;2023-07-24T09:56:21;9.98;;;7.25;;
54125;SDS011;40360;52.992;6.796;2023-07-24T09:58:48;9.63;;;6.13;;
54125;SDS011;40360;52.992;6.796;2023-07-24T10:01:19;8.45;;;6.03;;
54125;SDS011;40360;52.992;6.796;2023-07-24T10:03:46;9.18;;;6.32;;
54125;SDS011;40360;52.992;6.796;2023-07-24T10:06:12;8.85;;;5.75;;
54125;SDS011;40360;52.992;6.796;2023-07-24T10:08:40;7.72;;;5.35;;
54125;SDS011;40360;52.992;6.796;2023-07-24T10:11:09;8.15;;;5.85;;
54125;SDS011;40360;52.992;6.796;2023-07-24T10:13:36;9.38;;;5.68;;
54125;SDS011;40360;52.992;6.796;2023-07-24T10:16:03;9.27;;;5.30;;
54125;SDS011;40360;52.992;6.796;2023-07-24T10:18:31;8.43;;;5.30;;
54125;SDS011;40360;52.992;6.796;2023-07-24T10:23:28;5.93;;;5.18;;
54125;SDS011;40360;52.992;6.796;2023-07-24T10:25:54;7.22;;;5.90;;
54125;SDS011;40360;52.992;6.796;2023-07-24T10:28:29;9.50;;;6.43;;
54125;SDS011;40360;52.992;6.796;2023-07-24T10:31:18;7.82;;;5.63;;
54125;SDS011;40360;52.992;6.796;2023-07-24T10:33:44;10.65;;;5.13;;
54125;SDS011;40360;52.992;6.796;2023-07-24T10:36:11;8.90;;;5.32;;
54125;SDS011;40360;52.992;6.796;2023-07-24T10:38:41;9.05;;;5.20;;
54125;SDS011;40360;52.992;6.796;2023-07-24T10:41:08;8.02;;;5.05;;
54125;SDS011;40360;52.992;6.796;2023-07-24T10:43:45;7.82;;;4.90;;
54125;SDS011;40360;52.992;6.796;2023-07-24T10:46:16;8.48;;;5.72;;
54125;SDS011;40360;52.992;6.796;2023-07-24T10:48:44;8.35;;;4.88;;
54125;SDS011;40360;52.992;6.796;2023-07-24T10:51:11;8.10;;;4.65;;
54125;SDS011;40360;52.992;6.796;2023-07-24T10:53:40;5.35;;;4.10;;
54125;SDS011;40360;52.992;6.796;2023-07-24T10:56:10;6.50;;;5.05;;
54125;SDS011;40360;52.992;6.796;2023-07-24T10:58:36;9.93;;;5.45;;
54125;SDS011;40360;52.992;6.796;2023-07-24T11:01:05;8.73;;;4.78;;
54125;SDS011;40360;52.992;6.796;2023-07-24T11:03:32;6.97;;;4.63;;
54125;SDS011;40360;52.992;6.796;2023-07-24T11:06:00;8.52;;;4.70;;
54125;SDS011;40360;52.992;6.796;2023-07-24T11:08:27;8.70;;;5.22;;
54125;SDS011;40360;52.992;6.796;2023-07-24T11:10:56;6.95;;;4.47;;
54125;SDS011;40360;52.992;6.796;2023-07-24T11:13:23;8.68;;;4.68;;
54125;SDS011;40360;52.992;6.796;2023-07-24T11:15:50;7.43;;;5.25;;
54125;SDS011;40360;52.992;6.796;2023-07-24T11:18:17;7.18;;;5.15;;
54125;SDS011;40360;52.992;6.796;2023-07-24T11:20:49;7.95;;;5.22;;
54125;SDS011;40360;52.992;6.796;2023-07-24T11:23:19;6.53;;;4.82;;
54125;SDS011;40360;52.992;6.796;2023-07-24T11:25:45;7.93;;;5.13;;
54125;SDS011;40360;52.992;6.796;2023-07-24T11:28:11;9.90;;;5.13;;
54125;SDS011;40360;52.992;6.796;2023-07-24T11:30:39;7.40;;;5.10;;
54125;SDS011;40360;52.992;6.796;2023-07-24T11:33:06;10.05;;;5.78;;
54125;SDS011;40360;52.992;6.796;2023-07-24T11:35:34;7.90;;;5.18;;
54125;SDS011;40360;52.992;6.796;2023-07-24T11:38:00;9.38;;;5.38;;
54125;SDS011;40360;52.992;6.796;2023-07-24T11:40:30;9.90;;;5.40;;
54125;SDS011;40360;52.992;6.796;2023-07-24T11:43:03;8.10;;;5.20;;
54125;SDS011;40360;52.992;6.796;2023-07-24T11:45:29;12.38;;;5.75;;
54125;SDS011;40360;52.992;6.796;2023-07-24T11:47:56;11.88;;;6.68;;
54125;SDS011;40360;52.992;6.796;2023-07-24T11:50:22;11.18;;;7.18;;
54125;SDS011;40360;52.992;6.796;2023-07-24T11:52:50;9.00;;;5.55;;
54125;SDS011;40360;52.992;6.796;2023-07-24T11:55:17;8.27;;;5.72;;
54125;SDS011;40360;52.992;6.796;2023-07-24T11:57:57;8.23;;;5.45;;
54125;SDS011;40360;52.992;6.796;2023-07-24T12:00:24;8.07;;;5.45;;
54125;SDS011;40360;52.992;6.796;2023-07-24T12:02:50;6.25;;;4.95;;
54125;SDS011;40360;52.992;6.796;2023-07-24T12:05:16;8.82;;;5.47;;
54125;SDS011;40360;52.992;6.796;2023-07-24T12:07:43;9.90;;;5.35;;
54125;SDS011;40360;52.992;6.796;2023-07-24T12:10:10;9.65;;;6.05;;
54125;SDS011;40360;52.992;6.796;2023-07-24T12:12:38;9.27;;;6.05;;
54125;SDS011;40360;52.992;6.796;2023-07-24T12:15:04;8.80;;;4.70;;
54125;SDS011;40360;52.992;6.796;2023-07-24T12:17:29;9.18;;;5.55;;
54125;SDS011;40360;52.992;6.796;2023-07-24T12:19:55;9.77;;;6.68;;
54125;SDS011;40360;52.992;6.796;2023-07-24T12:22:21;9.82;;;6.40;;
54125;SDS011;40360;52.992;6.796;2023-07-24T12:24:47;7.55;;;5.38;;
54125;SDS011;40360;52.992;6.796;2023-07-24T12:27:12;9.95;;;5.70;;
54125;SDS011;40360;52.992;6.796;2023-07-24T12:29:38;8.27;;;6.15;;
54125;SDS011;40360;52.992;6.796;2023-07-24T12:32:04;8.05;;;5.78;;
54125;SDS011;40360;52.992;6.796;2023-07-24T12:34:30;7.95;;;6.50;;
54125;SDS011;40360;52.992;6.796;2023-07-24T12:36:55;10.35;;;6.30;;
54125;SDS011;40360;52.992;6.796;2023-07-24T12:39:21;10.50;;;6.65;;
54125;SDS011;40360;52.992;6.796;2023-07-24T12:41:46;9.52;;;6.25;;
54125;SDS011;40360;52.992;6.796;2023-07-24T12:44:12;7.80;;;6.32;;
54125;SDS011;40360;52.992;6.796;2023-07-24T12:46:38;8.00;;;6.20;;
54125;SDS011;40360;52.992;6.796;2023-07-24T12:49:03;8.07;;;5.95;;
54125;SDS011;40360;52.992;6.796;2023-07-24T12:51:29;9.85;;;6.05;;
54125;SDS011;40360;52.992;6.796;2023-07-24T12:53:54;8.52;;;5.53;;
54125;SDS011;40360;52.992;6.796;2023-07-24T12:56:20;9.10;;;5.50;;
54125;SDS011;40360;52.992;6.796;2023-07-24T12:58:46;10.57;;;5.95;;
54125;SDS011;40360;52.992;6.796;2023-07-24T13:01:11;8.10;;;5.80;;
54125;SDS011;40360;52.992;6.796;2023-07-24T13:03:37;8.90;;;5.70;;
54125;SDS011;40360;52.992;6.796;2023-07-24T13:06:02;7.30;;;5.53;;
54125;SDS011;40360;52.992;6.796;2023-07-24T13:08:28;6.45;;;5.15;;
54125;SDS011;40360;52.992;6.796;2023-07-24T13:10:54;5.43;;;4.38;;
54125;SDS011;40360;52.992;6.796;2023-07-24T13:13:19;5.45;;;4.35;;
54125;SDS011;40360;52.992;6.796;2023-07-24T13:15:45;6.57;;;4.38;;
54125;SDS011;40360;52.992;6.796;2023-07-24T13:18:10;6.63;;;4.90;;
54125;SDS011;40360;52.992;6.796;2023-07-24T13:20:39;9.00;;;5.03;;
54125;SDS011;40360;52.992;6.796;2023-07-24T13:23:05;6.53;;;5.25;;
54125;SDS011;40360;52.992;6.796;2023-07-24T13:25:31;9.38;;;5.10;;
54125;SDS011;40360;52.992;6.796;2023-07-24T13:27:56;8.07;;;4.82;;
54125;SDS011;40360;52.992;6.796;2023-07-24T13:30:22;5.57;;;4.00;;
54125;SDS011;40360;52.992;6.796;2023-07-24T13:32:47;6.90;;;4.35;;
54125;SDS011;40360;52.992;6.796;2023-07-24T13:35:13;6.50;;;3.78;;
54125;SDS011;40360;52.992;6.796;2023-07-24T13:37:40;6.65;;;4.18;;
54125;SDS011;40360;52.992;6.796;2023-07-24T13:40:06;6.38;;;4.10;;
54125;SDS011;40360;52.992;6.796;2023-07-24T13:42:32;5.45;;;4.57;;
54125;SDS011;40360;52.992;6.796;2023-07-24T13:44:57;4.43;;;3.97;;
54125;SDS011;40360;52.992;6.796;2023-07-24T13:47:23;7.07;;;4.68;;
54125;SDS011;40360;52.992;6.796;2023-07-24T13:49:49;4.65;;;4.20;;
54125;SDS011;40360;52.992;6.796;2023-07-24T13:52:15;6.85;;;4.25;;
54125;SDS011;40360;52.992;6.796;2023-07-24T13:54:40;5.82;;;5.18;;
54125;SDS011;40360;52.992;6.796;2023-07-24T13:57:06;5.68;;;5.05;;
54125;SDS011;40360;52.992;6.796;2023-07-24T13:59:35;6.88;;;5.07;;
54125;SDS011;40360;52.992;6.796;2023-07-24T14:02:03;5.60;;;4.70;;
54125;SDS011;40360;52.992;6.796;2023-07-24T14:04:28;5.82;;;4.65;;
54125;SDS011;40360;52.992;6.796;2023-07-24T14:06:54;4.93;;;4.47;;
54125;SDS011;40360;52.992;6.796;2023-07-24T14:09:19;8.77;;;5.10;;
54125;SDS011;40360;52.992;6.796;2023-07-24T14:11:45;6.63;;;4.43;;
54125;SDS011;40360;52.992;6.796;2023-07-24T14:14:11;6.50;;;4.07;;
54125;SDS011;40360;52.992;6.796;2023-07-24T14:16:36;4.95;;;3.70;;
54125;SDS011;40360;52.992;6.796;2023-07-24T14:19:02;3.22;;;2.72;;
54125;SDS011;40360;52.992;6.796;2023-07-24T14:21:28;4.15;;;2.78;;
54125;SDS011;40360;52.992;6.796;2023-07-24T14:23:53;2.80;;;2.45;;
54125;SDS011;40360;52.992;6.796;2023-07-24T14:26:19;3.38;;;2.88;;
54125;SDS011;40360;52.992;6.796;2023-07-24T14:28:45;2.92;;;2.65;;
54125;SDS011;40360;52.992;6.796;2023-07-24T14:31:10;5.20;;;2.50;;
54125;SDS011;40360;52.992;6.796;2023-07-24T14:33:36;3.10;;;2.80;;
54125;SDS011;40360;52.992;6.796;2023-07-24T14:36:01;2.80;;;2.45;;
54125;SDS011;40360;52.992;6.796;2023-07-24T14:38:27;3.63;;;2.70;;
54125;SDS011;40360;52.992;6.796;2023-07-24T14:40:53;3.33;;;2.90;;
54125;SDS011;40360;52.992;6.796;2023-07-24T14:43:18;4.55;;;2.83;;
54125;SDS011;40360;52.992;6.796;2023-07-24T14:45:44;4.95;;;1.85;;
54125;SDS011;40360;52.992;6.796;2023-07-24T14:48:10;3.63;;;1.83;;
54125;SDS011;40360;52.992;6.796;2023-07-24T14:50:37;6.13;;;2.55;;
54125;SDS011;40360;52.992;6.796;2023-07-24T14:53:03;5.80;;;2.65;;
54125;SDS011;40360;52.992;6.796;2023-07-24T14:55:29;5.85;;;2.67;;
54125;SDS011;40360;52.992;6.796;2023-07-24T14:57:54;6.05;;;2.17;;